Time;durP1;ratioP1;P1;durP2;ratioP2;P2;SDS_P1;SDS_P2;PMS_P1;PMS_P2;Temp;Humidity;BMP_temperature;BMP_pressure;BME280_temperature;BME280_humidity;BME280_pressure;Samples;Min_cycle;Max_cycle;Signal;HPM_P1;HPM_P2
2022/10/02 00:01:52;;;;;;;2.47;1.60;;;11.40;99.90;;;;;;5021197;28;20193;-75
2022/10/02 00:04:23;;;;;;;1.52;1.40;;;11.50;99.90;;;;;;5014288;28;20314;-74
2022/10/02 00:06:52;;;;;;;3.28;1.60;;;11.40;99.90;;;;;;5020032;28;20177;-75
2022/10/02 00:09:45;;;;;;;2.72;1.65;;;11.50;99.90;;;;;;5033433;28;20178;-75
2022/10/02 00:12:14;;;;;;;5.57;2.15;;;11.50;99.90;;;;;;5024312;28;20196;-76
2022/10/02 00:14:43;;;;;;;1.85;1.40;;;11.50;99.90;;;;;;5024729;28;20675;-75
2022/10/02 00:17:20;;;;;;;4.22;1.58;;;11.50;99.90;;;;;;5027254;28;20204;-75
2022/10/02 00:19:45;;;;;;;1.50;1.42;;;11.50;99.90;;;;;;5024063;28;20585;-76
2022/10/02 00:22:17;;;;;;;2.85;1.67;;;11.50;99.90;;;;;;5027652;28;20204;-78
2022/10/02 00:24:53;;;;;;;1.60;1.50;;;11.50;99.90;;;;;;5023653;28;20181;-75
2022/10/02 00:27:32;;;;;;;3.10;1.55;;;11.50;99.90;;;;;;5014060;28;20180;-75
2022/10/02 00:30:01;;;;;;;1.42;1.33;;;11.60;99.90;;;;;;5021340;28;20641;-74
2022/10/02 00:32:58;;;;;;;1.33;1.33;;;11.70;99.90;;;;;;5017034;28;20279;-76
2022/10/02 00:35:42;;;;;;;1.73;1.52;;;11.80;99.90;;;;;;5021317;28;20192;-75
2022/10/02 00:38:28;;;;;;;1.73;1.23;;;11.80;99.90;;;;;;5028259;28;20655;-76
2022/10/02 00:41:18;;;;;;;1.25;1.20;;;11.80;99.90;;;;;;5023985;28;20200;-76
2022/10/02 00:44:20;;;;;;;1.63;1.52;;;11.80;99.90;;;;;;5022773;28;20181;-76
2022/10/02 00:47:09;;;;;;;1.55;1.38;;;11.80;99.90;;;;;;5020136;28;20257;-76
2022/10/02 00:50:02;;;;;;;2.38;1.30;;;11.90;99.90;;;;;;5021903;28;20189;-76
2022/10/02 00:53:00;;;;;;;2.58;1.85;;;12.00;99.90;;;;;;5020638;28;20207;-76
2022/10/02 00:55:34;;;;;;;3.47;1.90;;;12.10;99.90;;;;;;5022062;28;20177;-76
2022/10/02 00:58:16;;;;;;;3.30;1.65;;;12.10;99.90;;;;;;5020309;28;20173;-75
2022/10/02 01:00:53;;;;;;;3.05;1.50;;;12.10;99.90;;;;;;5016905;28;20169;-75
2022/10/02 01:03:38;;;;;;;4.18;1.63;;;12.10;99.90;;;;;;5007245;28;20199;-75
2022/10/02 01:06:05;;;;;;;4.35;1.73;;;12.00;99.90;;;;;;5026191;28;20648;-75
2022/10/02 01:08:31;;;;;;;2.95;1.80;;;11.90;99.90;;;;;;5026694;28;20231;-75
2022/10/02 01:10:58;;;;;;;1.95;1.50;;;12.00;99.90;;;;;;5019750;28;20538;-74
2022/10/02 01:13:23;;;;;;;1.50;1.40;;;11.90;99.90;;;;;;5026936;28;20231;-75
2022/10/02 01:15:53;;;;;;;3.47;1.45;;;11.90;99.90;;;;;;5028338;28;20630;-76
2022/10/02 01:18:19;;;;;;;1.50;1.40;;;11.90;99.90;;;;;;5017576;28;20694;-74
2022/10/02 01:20:49;;;;;;;3.53;1.50;;;11.90;99.90;;;;;;5023316;28;20209;-75
2022/10/02 01:23:14;;;;;;;3.17;1.40;;;12.00;99.90;;;;;;5024630;28;20234;-75
2022/10/02 01:25:41;;;;;;;2.35;1.27;;;12.00;99.90;;;;;;5029843;28;20173;-77
2022/10/02 01:28:06;;;;;;;2.17;1.42;;;12.00;99.90;;;;;;5026038;28;20231;-75
2022/10/02 01:30:37;;;;;;;3.25;1.83;;;11.90;99.90;;;;;;5023932;28;20190;-75
2022/10/02 01:33:04;;;;;;;2.63;1.58;;;11.90;99.90;;;;;;5025505;28;20228;-76
2022/10/02 01:35:32;;;;;;;2.92;1.52;;;11.90;99.90;;;;;;5026076;28;20191;-76
2022/10/02 01:38:02;;;;;;;3.38;1.60;;;11.90;99.90;;;;;;5028788;28;20183;-77
2022/10/02 01:40:31;;;;;;;3.90;1.73;;;11.90;99.90;;;;;;5026502;28;20195;-76
2022/10/02 01:43:02;;;;;;;3.83;2.00;;;12.00;99.90;;;;;;5022764;28;20193;-81
2022/10/02 01:45:52;;;;;;;3.03;1.77;;;12.00;99.90;;;;;;5028929;28;20180;-76
2022/10/02 01:48:45;;;;;;;2.42;1.50;;;12.00;99.90;;;;;;5020911;28;20177;-76
2022/10/02 01:51:32;;;;;;;2.33;1.25;;;12.00;99.90;;;;;;5027133;28;20264;-75
2022/10/02 01:54:16;;;;;;;2.95;1.90;;;12.00;99.90;;;;;;5011904;28;20677;-75
2022/10/02 01:56:58;;;;;;;2.97;1.77;;;11.90;99.90;;;;;;5020599;28;20237;-75
2022/10/02 01:59:51;;;;;;;2.75;1.50;;;11.80;99.90;;;;;;5027599;28;20192;-75
2022/10/02 02:02:30;;;;;;;2.70;1.90;;;11.80;99.90;;;;;;5021735;28;20200;-75
2022/10/02 02:05:04;;;;;;;2.25;1.67;;;11.80;99.90;;;;;;5021819;28;20184;-76
2022/10/02 02:07:48;;;;;;;5.45;1.70;;;11.90;99.90;;;;;;5027962;28;20191;-75
2022/10/02 02:10:23;;;;;;;2.75;2.35;;;11.90;99.90;;;;;;5017640;28;20173;-76
2022/10/02 02:12:55;;;;;;;2.80;1.80;;;11.80;99.90;;;;;;5028269;28;20565;-76
2022/10/02 02:15:42;;;;;;;1.52;1.42;;;11.70;99.90;;;;;;5025971;28;20176;-76
2022/10/02 02:18:35;;;;;;;4.07;1.50;;;11.80;99.90;;;;;;5015900;28;20180;-76
2022/10/02 02:21:11;;;;;;;4.35;1.80;;;11.90;99.90;;;;;;5015558;28;20266;-76
2022/10/02 02:23:39;;;;;;;1.73;1.60;;;11.90;99.90;;;;;;5026013;28;20314;-76
2022/10/02 02:26:10;;;;;;;1.88;1.75;;;11.90;99.90;;;;;;5027257;28;20192;-76
2022/10/02 02:28:39;;;;;;;1.52;1.42;;;11.80;99.90;;;;;;5022838;28;20176;-75
2022/10/02 02:31:08;;;;;;;1.75;1.65;;;11.80;99.90;;;;;;5028563;28;20267;-75
2022/10/02 02:33:43;;;;;;;1.75;1.63;;;11.80;99.90;;;;;;5014781;28;20252;-76
2022/10/02 02:36:13;;;;;;;2.38;1.90;;;11.80;99.90;;;;;;5024399;28;20261;-76
2022/10/02 02:39:10;;;;;;;6.82;1.98;;;11.80;99.90;;;;;;5022396;28;20183;-76
2022/10/02 02:41:52;;;;;;;3.03;1.77;;;11.80;99.90;;;;;;5020559;28;20629;-74
2022/10/02 02:44:29;;;;;;;4.07;2.00;;;11.80;99.90;;;;;;5005728;28;20177;-75
2022/10/02 02:47:12;;;;;;;2.63;1.52;;;11.80;99.90;;;;;;5025834;28;20185;-75
2022/10/02 02:49:58;;;;;;;2.78;1.90;;;11.80;99.90;;;;;;5026960;28;20172;-75
2022/10/02 02:52:32;;;;;;;3.03;2.13;;;11.80;99.90;;;;;;5016480;28;20196;-74
2022/10/02 02:55:02;;;;;;;2.67;2.10;;;11.90;99.90;;;;;;5014588;28;20182;-75
2022/10/02 02:57:43;;;;;;;4.03;2.78;;;11.90;99.90;;;;;;4999300;28;20217;-76
2022/10/02 03:00:10;;;;;;;4.40;1.98;;;11.80;99.90;;;;;;4999672;28;20260;-75
2022/10/02 03:02:36;;;;;;;1.85;1.65;;;11.90;99.90;;;;;;5003430;28;20640;-74
2022/10/02 03:05:01;;;;;;;2.47;2.00;;;11.90;99.90;;;;;;4994846;28;20189;-74
2022/10/02 03:07:27;;;;;;;2.45;2.00;;;12.00;99.90;;;;;;4998847;28;21003;-74
2022/10/02 03:10:04;;;;;;;3.78;1.92;;;11.90;99.90;;;;;;4997328;28;20193;-74
2022/10/02 03:12:43;;;;;;;2.33;2.20;;;11.90;99.90;;;;;;4998272;28;20202;-74
2022/10/02 03:15:39;;;;;;;2.92;1.80;;;11.80;99.90;;;;;;5002870;28;20172;-75
2022/10/02 03:18:48;;;;;;;2.88;1.67;;;11.80;99.90;;;;;;5003174;28;20206;-75
2022/10/02 03:21:25;;;;;;;2.60;2.25;;;11.80;99.90;;;;;;4989033;28;20256;-75
2022/10/02 03:24:20;;;;;;;4.25;2.42;;;11.80;99.90;;;;;;5000693;28;20597;-74
2022/10/02 03:26:53;;;;;;;4.05;2.20;;;11.80;99.90;;;;;;5002981;28;20213;-74
2022/10/02 03:29:25;;;;;;;3.10;1.50;;;11.90;99.90;;;;;;5005488;28;20192;-74
2022/10/02 03:31:52;;;;;;;4.25;3.13;;;11.80;99.90;;;;;;5003060;28;20237;-74
2022/10/02 03:34:18;;;;;;;4.00;3.40;;;11.80;99.90;;;;;;5001047;28;20182;-74
2022/10/02 03:36:45;;;;;;;3.63;3.30;;;11.80;99.90;;;;;;5008002;28;20280;-74
2022/10/02 03:39:11;;;;;;;3.28;2.67;;;11.80;99.90;;;;;;5003031;28;20182;-74
2022/10/02 03:41:37;;;;;;;2.30;2.10;;;11.80;99.90;;;;;;5004880;28;22750;-74
2022/10/02 03:44:03;;;;;;;2.45;2.25;;;11.90;99.90;;;;;;5004789;28;20219;-74
2022/10/02 03:46:29;;;;;;;2.50;2.13;;;11.90;99.90;;;;;;5003460;28;20178;-74
2022/10/02 03:48:55;;;;;;;3.08;2.58;;;11.80;99.90;;;;;;5005512;28;20192;-74
2022/10/02 03:51:22;;;;;;;2.90;2.70;;;11.80;99.90;;;;;;5004384;28;20181;-74
2022/10/02 03:53:47;;;;;;;3.33;2.25;;;11.80;99.90;;;;;;5011353;28;20537;-75
2022/10/02 03:56:35;;;;;;;3.90;2.72;;;11.80;99.90;;;;;;5007133;28;20209;-74
2022/10/02 03:59:04;;;;;;;5.57;2.95;;;11.80;99.90;;;;;;5024599;28;20176;-74
2022/10/02 04:01:35;;;;;;;7.88;3.50;;;11.80;99.90;;;;;;5020340;28;20701;-74
2022/10/02 04:04:13;;;;;;;3.85;3.65;;;11.80;99.90;;;;;;5026520;28;20543;-74
2022/10/02 04:06:45;;;;;;;5.93;3.60;;;11.70;99.90;;;;;;5030017;28;20187;-74
2022/10/02 04:09:35;;;;;;;4.07;3.78;;;11.70;99.90;;;;;;5027896;28;20211;-75
2022/10/02 04:12:09;;;;;;;6.35;3.72;;;11.70;99.90;;;;;;5031080;28;20193;-74
2022/10/02 04:14:47;;;;;;;3.45;3.25;;;11.80;99.90;;;;;;5007019;28;20204;-74
2022/10/02 04:17:22;;;;;;;5.25;3.75;;;11.80;99.90;;;;;;5020249;28;20617;-74
2022/10/02 04:19:58;;;;;;;4.88;3.63;;;11.80;99.90;;;;;;5022705;28;20272;-74
2022/10/02 04:22:38;;;;;;;4.55;3.33;;;11.80;99.90;;;;;;5022810;28;20218;-74
2022/10/02 04:25:20;;;;;;;4.85;3.53;;;11.80;99.90;;;;;;5025311;28;20205;-74
2022/10/02 04:27:54;;;;;;;2.80;2.60;;;11.80;99.90;;;;;;5029340;28;20557;-75
2022/10/02 04:30:20;;;;;;;3.42;3.08;;;11.70;99.90;;;;;;5013195;28;20175;-73
2022/10/02 04:32:46;;;;;;;4.28;3.28;;;11.80;99.90;;;;;;5009316;28;20206;-74
2022/10/02 04:35:44;;;;;;;4.53;2.92;;;11.80;99.90;;;;;;5028847;28;20689;-74
2022/10/02 04:38:25;;;;;;;3.80;2.92;;;11.80;99.90;;;;;;5024787;28;20196;-74
2022/10/02 04:41:15;;;;;;;4.50;3.00;;;11.80;99.90;;;;;;5018777;28;20654;-73
2022/10/02 04:44:02;;;;;;;2.83;2.63;;;11.80;99.90;;;;;;5024646;28;20176;-74
2022/10/02 04:47:11;;;;;;;4.03;3.00;;;11.70;99.90;;;;;;5021622;28;20181;-74
2022/10/02 04:50:03;;;;;;;3.45;2.10;;;11.60;99.90;;;;;;5015077;28;20195;-74
2022/10/02 04:52:43;;;;;;;1.95;1.85;;;11.60;99.90;;;;;;5017470;28;20574;-74
2022/10/02 04:55:27;;;;;;;4.40;1.90;;;11.70;99.90;;;;;;5025009;28;20173;-73
2022/10/02 04:58:14;;;;;;;1.77;1.67;;;11.70;99.90;;;;;;5018960;28;20940;-74
2022/10/02 05:00:53;;;;;;;4.30;2.25;;;11.60;99.90;;;;;;5004780;28;20184;-73
2022/10/02 05:03:47;;;;;;;4.07;2.13;;;11.60;99.90;;;;;;5010036;28;20221;-77
2022/10/02 05:06:36;;;;;;;2.03;1.83;;;11.50;99.90;;;;;;5005694;28;20554;-76
2022/10/02 05:09:27;;;;;;;2.75;1.60;;;11.50;99.90;;;;;;5002662;28;20208;-76
2022/10/02 05:12:18;;;;;;;3.58;1.60;;;11.60;99.90;;;;;;5000595;28;20213;-75
2022/10/02 05:14:52;;;;;;;4.30;1.50;;;11.60;99.90;;;;;;5001229;28;20574;-76
2022/10/02 05:17:26;;;;;;;4.50;1.80;;;11.60;99.90;;;;;;5012894;28;20278;-75
2022/10/02 05:20:09;;;;;;;5.53;1.80;;;11.60;99.90;;;;;;5004135;28;20178;-75
2022/10/02 05:23:03;;;;;;;2.05;1.45;;;11.60;99.90;;;;;;5011269;28;20196;-76
2022/10/02 05:26:11;;;;;;;3.50;1.70;;;11.50;99.90;;;;;;5005350;28;20204;-75
2022/10/02 05:28:58;;;;;;;1.73;1.63;;;11.50;99.90;;;;;;5010135;28;20546;-75
2022/10/02 05:31:59;;;;;;;2.72;2.00;;;11.50;99.90;;;;;;5004663;28;20227;-77
2022/10/02 05:34:42;;;;;;;2.00;1.80;;;11.50;99.90;;;;;;5016030;28;20192;-73
2022/10/02 05:37:17;;;;;;;3.58;1.88;;;11.60;99.90;;;;;;5003281;28;20192;-74
2022/10/02 05:40:18;;;;;;;2.45;1.98;;;11.60;99.90;;;;;;5018443;28;20174;-76
2022/10/02 05:42:59;;;;;;;2.10;2.00;;;11.50;99.90;;;;;;5001753;28;20293;-77
2022/10/02 05:45:35;;;;;;;3.22;1.92;;;11.70;99.90;;;;;;5006756;28;20177;-73
2022/10/02 05:48:16;;;;;;;1.98;1.83;;;11.70;99.90;;;;;;5002797;28;20200;-76
2022/10/02 05:50:44;;;;;;;3.75;1.67;;;11.80;99.90;;;;;;5001439;28;20188;-75
2022/10/02 05:53:33;;;;;;;1.88;1.77;;;11.70;99.90;;;;;;5001788;28;20245;-75
2022/10/02 05:56:32;;;;;;;2.90;1.80;;;11.70;99.90;;;;;;5007053;28;20224;-76
2022/10/02 05:59:06;;;;;;;3.78;1.90;;;11.60;99.90;;;;;;5000538;28;20248;-76
2022/10/02 06:01:38;;;;;;;4.00;2.03;;;11.80;99.90;;;;;;5002114;28;20181;-75
2022/10/02 06:04:11;;;;;;;3.10;1.80;;;11.80;99.90;;;;;;5002861;28;20657;-75
2022/10/02 06:06:54;;;;;;;3.55;2.80;;;11.80;99.90;;;;;;5004580;28;20257;-76
2022/10/02 06:09:35;;;;;;;2.47;2.22;;;11.90;99.90;;;;;;5001594;28;20812;-76
2022/10/02 06:12:10;;;;;;;2.78;1.73;;;11.90;99.90;;;;;;5002410;28;20205;-75
2022/10/02 06:14:59;;;;;;;4.25;1.80;;;12.00;99.90;;;;;;5002469;28;20185;-76
2022/10/02 06:17:30;;;;;;;1.67;1.58;;;12.00;99.90;;;;;;5000195;28;20210;-76
2022/10/02 06:20:09;;;;;;;2.17;1.60;;;12.00;99.90;;;;;;5005919;28;20196;-75
2022/10/02 06:22:49;;;;;;;3.97;1.70;;;12.10;99.90;;;;;;5001768;28;20567;-75
2022/10/02 06:25:20;;;;;;;1.55;1.35;;;12.10;99.90;;;;;;5000250;28;20252;-76
2022/10/02 06:27:52;;;;;;;2.35;1.98;;;12.10;99.90;;;;;;5005201;28;20311;-80
2022/10/02 06:30:18;;;;;;;1.73;1.58;;;12.10;99.90;;;;;;5004941;28;20199;-75
2022/10/02 06:33:02;;;;;;;3.03;1.83;;;12.10;99.90;;;;;;5012334;28;20205;-76
2022/10/02 06:35:36;;;;;;;1.70;1.60;;;12.20;99.90;;;;;;5006621;28;20177;-76
2022/10/02 06:38:11;;;;;;;2.17;1.52;;;12.20;99.90;;;;;;5011678;28;20173;-75
2022/10/02 06:40:50;;;;;;;3.17;1.58;;;12.30;99.90;;;;;;5013468;28;20302;-75
2022/10/02 06:43:26;;;;;;;2.55;1.80;;;12.20;99.90;;;;;;5001446;28;20268;-75
2022/10/02 06:46:08;;;;;;;2.92;1.80;;;12.20;99.90;;;;;;5000329;28;20209;-75
2022/10/02 06:48:47;;;;;;;3.67;2.00;;;12.20;99.90;;;;;;5001035;28;20181;-76
2022/10/02 06:51:18;;;;;;;1.95;1.77;;;12.30;99.90;;;;;;5002936;28;20194;-75
2022/10/02 06:54:10;;;;;;;4.05;1.92;;;12.40;99.90;;;;;;5001135;28;20190;-75
2022/10/02 06:56:45;;;;;;;2.45;2.20;;;12.40;99.90;;;;;;5001618;28;20212;-75
2022/10/02 06:59:41;;;;;;;3.42;1.92;;;12.50;99.90;;;;;;5003204;28;20177;-75
2022/10/02 07:02:44;;;;;;;3.35;1.90;;;12.50;99.90;;;;;;5001615;28;20197;-75
2022/10/02 07:05:34;;;;;;;2.60;1.65;;;12.60;99.90;;;;;;5006426;28;20177;-78
2022/10/02 07:08:10;;;;;;;5.25;1.98;;;12.60;99.90;;;;;;5019764;28;20557;-76
2022/10/02 07:10:48;;;;;;;2.17;1.63;;;12.60;99.90;;;;;;5006230;28;20685;-77
2022/10/02 07:13:35;;;;;;;3.45;1.60;;;12.60;99.90;;;;;;5011493;28;20196;-72
2022/10/02 07:16:05;;;;;;;5.95;2.03;;;12.70;99.90;;;;;;5002434;28;20209;-77
2022/10/02 07:19:01;;;;;;;6.05;1.67;;;12.70;99.90;;;;;;5006735;28;20272;-75
2022/10/02 07:21:47;;;;;;;2.97;1.60;;;12.70;99.90;;;;;;5013615;28;20561;-73
2022/10/02 07:24:50;;;;;;;2.53;1.90;;;12.70;99.90;;;;;;5020969;28;20723;-75
2022/10/02 07:27:25;;;;;;;4.53;1.52;;;12.80;99.90;;;;;;5015069;28;20207;-76
2022/10/02 07:30:00;;;;;;;2.53;1.88;;;12.80;99.90;;;;;;5013835;28;20185;-76
2022/10/02 07:32:32;;;;;;;2.20;2.00;;;12.90;99.90;;;;;;5008088;28;20196;-76
2022/10/02 07:35:16;;;;;;;2.60;1.88;;;13.10;99.90;;;;;;5011299;28;20207;-76
2022/10/02 07:38:12;;;;;;;3.63;1.88;;;13.20;99.90;;;;;;5015356;28;20197;-77
2022/10/02 07:41:02;;;;;;;2.65;2.10;;;13.30;99.90;;;;;;5021183;28;20647;-76
2022/10/02 07:43:49;;;;;;;1.90;1.73;;;13.30;99.90;;;;;;5014589;28;20258;-77
2022/10/02 07:46:28;;;;;;;1.88;1.60;;;13.40;99.90;;;;;;5016680;28;20203;-74
2022/10/02 07:49:15;;;;;;;2.28;1.83;;;13.50;99.90;;;;;;5002727;28;20714;-75
2022/10/02 07:51:55;;;;;;;6.00;2.03;;;13.50;99.90;;;;;;5010022;28;20892;-76
2022/10/02 07:54:39;;;;;;;2.60;1.80;;;13.50;99.90;;;;;;5016148;28;20236;-80
2022/10/02 07:57:17;;;;;;;1.75;1.63;;;13.50;99.90;;;;;;5013476;28;20695;-75
2022/10/02 07:59:44;;;;;;;2.10;1.77;;;13.60;99.90;;;;;;5014285;28;20653;-77
2022/10/02 08:02:28;;;;;;;2.65;1.90;;;13.70;99.90;;;;;;5017731;28;20767;-77
2022/10/02 08:04:57;;;;;;;3.30;2.03;;;13.60;99.90;;;;;;5032069;28;20176;-77
2022/10/02 08:07:24;;;;;;;2.67;1.70;;;13.60;99.90;;;;;;5026569;28;20177;-77
2022/10/02 08:09:52;;;;;;;1.73;1.63;;;13.80;99.90;;;;;;5010411;28;20203;-76
2022/10/02 08:12:43;;;;;;;2.47;2.13;;;13.80;99.90;;;;;;5011632;28;20288;-80
2022/10/02 08:15:16;;;;;;;2.40;1.60;;;13.90;99.90;;;;;;5006511;28;20181;-74
2022/10/02 08:17:58;;;;;;;2.95;1.70;;;13.90;99.90;;;;;;5008900;28;20209;-76
2022/10/02 08:20:29;;;;;;;4.10;1.55;;;14.00;99.90;;;;;;5010540;28;20189;-76
2022/10/02 08:23:05;;;;;;;2.45;1.60;;;14.00;99.90;;;;;;5009233;28;20186;-76
2022/10/02 08:25:41;;;;;;;1.42;1.23;;;14.10;99.90;;;;;;5010303;28;20648;-77
2022/10/02 08:28:18;;;;;;;3.83;1.80;;;14.20;99.90;;;;;;5010612;28;20223;-77
2022/10/02 08:30:43;;;;;;;2.10;1.55;;;14.30;99.90;;;;;;5008548;28;20544;-76
2022/10/02 08:33:23;;;;;;;1.30;1.20;;;14.30;99.90;;;;;;5011287;28;20198;-77
2022/10/02 08:36:08;;;;;;;3.08;1.50;;;14.30;99.90;;;;;;5013026;28;20203;-77
2022/10/02 08:38:44;;;;;;;2.28;1.60;;;14.20;99.90;;;;;;5021125;28;20222;-74
2022/10/02 08:41:14;;;;;;;2.03;1.50;;;14.30;99.90;;;;;;5022445;28;20195;-75
2022/10/02 08:43:59;;;;;;;3.30;1.67;;;14.40;99.90;;;;;;5019016;28;20260;-75
2022/10/02 08:46:43;;;;;;;2.75;1.50;;;14.40;99.90;;;;;;5004113;28;20555;-74
2022/10/02 08:49:14;;;;;;;1.35;1.08;;;14.50;99.90;;;;;;5008172;28;20208;-74
2022/10/02 08:52:09;;;;;;;2.97;2.00;;;14.60;99.90;;;;;;5008684;28;20619;-75
2022/10/02 08:54:56;;;;;;;2.22;1.25;;;14.60;99.90;;;;;;5003747;28;20274;-74
2022/10/02 08:57:51;;;;;;;1.67;1.48;;;14.70;99.90;;;;;;5006920;28;20585;-78
2022/10/02 09:00:38;;;;;;;4.10;1.95;;;14.80;99.90;;;;;;5007949;28;20180;-75
2022/10/02 09:03:28;;;;;;;2.42;1.77;;;14.90;99.90;;;;;;5006816;28;20201;-74
2022/10/02 09:06:31;;;;;;;2.65;1.85;;;14.80;99.90;;;;;;5007544;28;20221;-74
2022/10/02 09:09:34;;;;;;;2.67;1.80;;;14.80;99.90;;;;;;5005711;28;20200;-75
2022/10/02 09:12:20;;;;;;;2.17;2.00;;;14.70;99.90;;;;;;5006952;28;20204;-76
2022/10/02 09:14:57;;;;;;;2.22;1.65;;;14.60;99.90;;;;;;5005874;28;20227;-76
2022/10/02 09:17:54;;;;;;;5.43;2.10;;;14.60;99.90;;;;;;5015922;28;20352;-75
2022/10/02 09:20:42;;;;;;;3.25;1.70;;;14.50;99.90;;;;;;5007315;28;20187;-76
2022/10/02 09:23:49;;;;;;;2.97;2.00;;;14.40;99.90;;;;;;5004800;28;20627;-75
2022/10/02 09:26:30;;;;;;;2.60;1.80;;;14.50;99.90;;;;;;5003423;28;20204;-74
2022/10/02 09:29:05;;;;;;;3.67;1.48;;;14.50;99.90;;;;;;5008119;28;20656;-75
2022/10/02 09:31:54;;;;;;;3.65;1.70;;;14.60;99.90;;;;;;5007722;28;20184;-75
2022/10/02 09:35:00;;;;;;;2.35;1.50;;;14.70;99.90;;;;;;5005233;28;20181;-75
2022/10/02 09:38:04;;;;;;;2.28;1.45;;;14.80;99.90;;;;;;4999860;28;20706;-76
2022/10/02 09:40:35;;;;;;;3.00;1.70;;;14.80;99.90;;;;;;5008348;28;20188;-75
2022/10/02 09:43:27;;;;;;;3.70;2.00;;;14.80;99.90;;;;;;5007578;28;20291;-75
2022/10/02 09:46:11;;;;;;;2.00;1.35;;;14.70;99.90;;;;;;5015626;28;20185;-75
2022/10/02 09:49:08;;;;;;;5.38;2.05;;;14.60;99.90;;;;;;5009481;28;20757;-75
2022/10/02 09:51:55;;;;;;;1.40;1.30;;;14.50;99.90;;;;;;5008027;28;20693;-76
2022/10/02 09:54:49;;;;;;;1.45;1.35;;;14.60;99.90;;;;;;5008964;28;20613;-74
2022/10/02 09:57:38;;;;;;;1.70;1.60;;;14.50;99.90;;;;;;5010021;28;20201;-78
2022/10/02 10:00:31;;;;;;;2.30;1.73;;;14.40;99.90;;;;;;5027862;28;20821;-77
2022/10/02 10:03:18;;;;;;;3.05;1.83;;;14.30;99.90;;;;;;5007096;28;20197;-76
2022/10/02 10:05:53;;;;;;;3.72;1.58;;;14.30;99.90;;;;;;5003326;28;20181;-78
2022/10/02 10:08:50;;;;;;;2.08;1.63;;;14.40;99.90;;;;;;5034037;28;20173;-78
2022/10/02 10:11:57;;;;;;;4.03;2.05;;;14.40;99.90;;;;;;5028092;28;20179;-79
2022/10/02 10:14:42;;;;;;;2.30;2.00;;;14.40;99.90;;;;;;5018436;28;20193;-81
2022/10/02 10:17:27;;;;;;;4.75;2.15;;;14.40;99.90;;;;;;5045697;28;20291;-79
2022/10/02 10:20:21;;;;;;;2.58;1.60;;;14.60;99.90;;;;;;5012827;28;20178;-79
2022/10/02 10:23:08;;;;;;;4.05;2.00;;;14.50;99.90;;;;;;5020951;28;20198;-78
2022/10/02 10:25:50;;;;;;;1.40;1.30;;;14.50;99.90;;;;;;5028955;28;20187;-77
2022/10/02 10:28:18;;;;;;;3.83;1.42;;;14.60;99.90;;;;;;5016605;28;20554;-80
2022/10/02 10:30:51;;;;;;;2.03;1.65;;;14.60;99.90;;;;;;5016624;28;20180;-77
2022/10/02 10:33:36;;;;;;;2.83;2.13;;;14.70;99.90;;;;;;5009794;28;20311;-76
2022/10/02 10:40:05;;;;;;;2.67;1.70;;;14.50;99.90;;;;;;5013062;28;20219;-77
2022/10/02 10:42:50;;;;;;;2.58;2.00;;;14.60;99.90;;;;;;5027534;28;20224;-77
2022/10/02 10:45:44;;;;;;;2.17;1.65;;;14.60;99.90;;;;;;5027182;28;20164;-77
2022/10/02 10:48:29;;;;;;;2.65;1.77;;;14.60;99.90;;;;;;5035624;28;20172;-78
2022/10/02 10:51:37;;;;;;;1.73;1.35;;;14.70;99.90;;;;;;5030019;28;20169;-77
2022/10/02 10:54:07;;;;;;;1.45;1.33;;;14.80;99.90;;;;;;5035677;28;20180;-77
2022/10/02 10:56:35;;;;;;;3.05;1.90;;;14.80;99.90;;;;;;5031193;28;20286;-79
2022/10/02 10:59:03;;;;;;;1.60;1.45;;;14.80;99.90;;;;;;5034053;28;20705;-78
2022/10/02 11:01:57;;;;;;;1.50;1.40;;;14.90;99.90;;;;;;5039402;28;20169;-78
2022/10/02 11:04:45;;;;;;;1.90;1.48;;;15.20;99.90;;;;;;5021649;28;20205;-77
2022/10/02 11:07:36;;;;;;;2.50;1.40;;;15.40;99.90;;;;;;5040094;28;20639;-77
2022/10/02 11:10:26;;;;;;;1.50;1.40;;;15.40;99.90;;;;;;5040617;28;20176;-77
2022/10/02 11:13:08;;;;;;;1.95;1.05;;;15.30;99.90;;;;;;5033431;28;20197;-77
2022/10/02 11:16:06;;;;;;;3.05;1.92;;;15.30;99.90;;;;;;5036512;28;20234;-76
2022/10/02 11:18:50;;;;;;;1.65;1.38;;;15.20;99.90;;;;;;5026161;28;20346;-77
2022/10/02 11:21:25;;;;;;;1.48;1.08;;;15.20;99.90;;;;;;5028874;28;20242;-77
2022/10/02 11:23:54;;;;;;;1.20;1.10;;;15.10;99.90;;;;;;5033824;28;20172;-77
2022/10/02 11:26:56;;;;;;;1.92;1.35;;;15.10;99.90;;;;;;5032083;28;20177;-77
2022/10/02 11:29:36;;;;;;;2.33;1.30;;;14.90;99.90;;;;;;5027022;28;20172;-77
2022/10/02 11:32:02;;;;;;;1.80;1.20;;;14.80;99.90;;;;;;5024004;28;20201;-77
2022/10/02 11:34:36;;;;;;;2.72;1.52;;;14.70;99.90;;;;;;5037398;28;20187;-77
2022/10/02 11:37:08;;;;;;;1.50;1.27;;;14.50;99.90;;;;;;5035158;28;20268;-78
2022/10/02 11:40:12;;;;;;;2.03;1.40;;;14.50;99.90;;;;;;5038325;28;20177;-77
2022/10/02 11:42:57;;;;;;;2.42;1.20;;;14.50;99.90;;;;;;5025939;28;20342;-77
2022/10/02 11:45:42;;;;;;;2.17;1.60;;;14.60;99.90;;;;;;5038493;28;20173;-77
2022/10/02 11:48:26;;;;;;;3.25;1.70;;;14.60;99.90;;;;;;5036566;28;20176;-80
2022/10/02 11:51:09;;;;;;;1.83;1.67;;;14.50;99.90;;;;;;5035272;28;20234;-78
2022/10/02 11:54:17;;;;;;;1.55;1.40;;;14.50;99.90;;;;;;5035258;28;20193;-77
2022/10/02 11:56:42;;;;;;;2.30;2.13;;;14.50;99.90;;;;;;5022013;28;20232;-78
2022/10/02 11:59:23;;;;;;;2.15;1.42;;;14.50;99.90;;;;;;5021716;28;20203;-78
2022/10/02 12:01:55;;;;;;;2.05;1.20;;;14.50;99.90;;;;;;5038432;28;20204;-77
2022/10/02 12:04:35;;;;;;;0.90;0.80;;;14.40;99.90;;;;;;5038598;28;20219;-78
2022/10/02 12:07:30;;;;;;;1.45;1.17;;;14.30;99.90;;;;;;5036344;28;20264;-77
2022/10/02 12:10:17;;;;;;;1.88;1.45;;;14.20;99.90;;;;;;5043940;28;20189;-78
2022/10/02 12:13:14;;;;;;;1.50;1.00;;;14.20;99.90;;;;;;5030411;28;20205;-77
2022/10/02 12:16:09;;;;;;;1.45;1.17;;;14.30;99.90;;;;;;5029663;28;20184;-78
2022/10/02 12:18:40;;;;;;;1.08;0.98;;;14.30;99.90;;;;;;5052839;28;20177;-78
2022/10/02 12:27:46;;;;;;;1.35;1.23;;;14.20;99.90;;;;;;5035458;28;20200;-78
2022/10/02 12:30:25;;;;;;;1.27;1.15;;;14.10;99.90;;;;;;5043990;28;20173;-77
2022/10/02 12:33:17;;;;;;;1.58;1.48;;;14.00;99.90;;;;;;5031304;28;20197;-77
2022/10/02 12:36:04;;;;;;;1.83;1.00;;;13.90;99.90;;;;;;5029892;28;20192;-77
2022/10/02 12:38:58;;;;;;;1.60;1.50;;;13.80;99.90;;;;;;5029256;28;20199;-78
2022/10/02 12:41:45;;;;;;;1.48;1.20;;;13.70;99.90;;;;;;5025280;28;20816;-77
2022/10/02 12:44:43;;;;;;;1.50;1.40;;;13.70;99.90;;;;;;5032896;28;20172;-78
2022/10/02 12:47:40;;;;;;;1.75;1.40;;;13.60;99.90;;;;;;5040569;28;20176;-78
2022/10/02 12:50:22;;;;;;;8.35;2.22;;;13.50;99.90;;;;;;5031400;28;20178;-77
2022/10/02 12:53:37;;;;;;;2.25;1.73;;;13.50;99.90;;;;;;5027641;28;20663;-78
2022/10/02 12:56:44;;;;;;;4.72;2.15;;;13.40;99.90;;;;;;5033463;28;20235;-77
2022/10/02 12:59:43;;;;;;;1.65;1.50;;;13.40;99.90;;;;;;5034994;28;20199;-77
2022/10/02 13:02:32;;;;;;;2.90;1.70;;;13.30;99.90;;;;;;5024260;28;20193;-78
2022/10/02 13:05:13;;;;;;;2.42;1.75;;;13.30;99.90;;;;;;5032563;28;20169;-77
2022/10/02 13:08:21;;;;;;;2.47;1.77;;;13.30;99.90;;;;;;5024847;28;20242;-77
2022/10/02 13:11:17;;;;;;;3.28;2.35;;;13.30;99.90;;;;;;5022883;28;20203;-77
2022/10/02 13:13:50;;;;;;;6.07;2.33;;;13.30;99.90;;;;;;5019507;28;20257;-77
2022/10/02 13:16:30;;;;;;;3.38;2.10;;;13.40;99.90;;;;;;5010388;28;20201;-78
2022/10/02 13:19:16;;;;;;;2.70;1.80;;;13.30;99.90;;;;;;5022475;28;20192;-77
2022/10/02 13:22:06;;;;;;;3.30;2.00;;;13.30;99.90;;;;;;5013102;28;20196;-77
2022/10/02 13:24:51;;;;;;;2.40;1.65;;;13.30;99.90;;;;;;5018097;28;20583;-77
2022/10/02 13:27:36;;;;;;;3.60;1.60;;;13.30;99.90;;;;;;5013810;28;20179;-77
2022/10/02 13:30:22;;;;;;;1.75;1.67;;;13.40;99.90;;;;;;5029765;28;20179;-77
2022/10/02 13:33:16;;;;;;;2.17;1.90;;;13.40;99.90;;;;;;5018124;28;20232;-77
2022/10/02 13:36:08;;;;;;;1.98;1.88;;;13.40;99.90;;;;;;5019284;28;20181;-77
2022/10/02 13:38:52;;;;;;;1.75;1.55;;;13.30;99.90;;;;;;5015107;28;20172;-76
2022/10/02 13:41:38;;;;;;;2.20;2.03;;;13.30;99.90;;;;;;5028330;28;20196;-77
2022/10/02 13:44:15;;;;;;;2.60;1.73;;;13.20;99.90;;;;;;5024397;28;20177;-77
2022/10/02 13:46:50;;;;;;;1.98;1.88;;;13.20;99.90;;;;;;5029336;28;20603;-77
2022/10/02 13:49:30;;;;;;;2.08;1.88;;;13.10;99.90;;;;;;5019034;28;20208;-79
2022/10/02 13:52:40;;;;;;;2.80;1.83;;;13.20;99.90;;;;;;5023995;28;20200;-77
2022/10/02 13:55:11;;;;;;;2.08;1.85;;;13.20;99.90;;;;;;5018756;28;20243;-77
2022/10/02 13:57:59;;;;;;;3.70;2.03;;;13.20;99.90;;;;;;5025150;28;20212;-77
2022/10/02 14:00:37;;;;;;;1.65;1.50;;;13.10;99.90;;;;;;5022160;28;20196;-77
2022/10/02 14:03:22;;;;;;;3.35;1.55;;;13.00;99.90;;;;;;5022591;28;20542;-77
2022/10/02 14:05:59;;;;;;;1.88;1.77;;;12.90;99.90;;;;;;5027108;28;20651;-77
2022/10/02 14:08:44;;;;;;;1.88;1.77;;;12.90;99.90;;;;;;5020966;28;20172;-77
2022/10/02 14:11:28;;;;;;;1.42;1.40;;;13.00;99.90;;;;;;5023957;28;20183;-78
2022/10/02 14:14:10;;;;;;;0.95;0.95;;;13.00;99.90;;;;;;5028684;28;20179;-77